createdAt,value
2022-12-23T00:01:07.602Z,6.00
2022-12-23T00:03:35.255Z,6.72
2022-12-23T00:06:07.561Z,6.60
2022-12-23T00:08:34.556Z,6.30
2022-12-23T00:11:01.251Z,7.07
2022-12-23T00:13:46.303Z,7.95
2022-12-23T00:16:14.424Z,7.43
2022-12-23T00:18:41.786Z,6.57
2022-12-23T00:21:11.824Z,6.55
2022-12-23T00:23:40.310Z,7.37
2022-12-23T00:26:07.652Z,6.35
2022-12-23T00:28:34.005Z,7.13
2022-12-23T00:31:01.877Z,7.20
2022-12-23T00:33:31.110Z,6.80
2022-12-23T00:35:57.741Z,7.13
2022-12-23T00:38:43.377Z,6.65
2022-12-23T00:41:34.322Z,6.68
2022-12-23T00:44:01.331Z,6.75
2022-12-23T00:46:28.383Z,6.25
2022-12-23T00:49:13.484Z,5.03
2022-12-23T00:51:40.132Z,6.13
2022-12-23T00:54:06.829Z,5.43
2022-12-23T00:56:33.509Z,4.85
2022-12-23T00:59:00.151Z,4.57
2022-12-23T01:01:45.261Z,5.40
2022-12-23T01:04:32.945Z,5.25
2022-12-23T01:06:59.952Z,4.20
2022-12-23T01:09:26.629Z,4.55
2022-12-23T01:11:53.391Z,4.55
2022-12-23T01:14:20.539Z,4.47
2022-12-23T01:16:47.157Z,3.92
2022-12-23T01:19:13.715Z,3.38
2022-12-23T01:21:41.552Z,4.45
2022-12-23T01:24:08.602Z,4.43
2022-12-23T01:26:35.944Z,4.53
2022-12-23T01:29:02.403Z,4.40
2022-12-23T01:31:29.892Z,4.10
2022-12-23T01:33:56.718Z,4.22
2022-12-23T01:36:23.760Z,4.57
2022-12-23T01:38:50.485Z,4.10
2022-12-23T01:41:43.226Z,3.78
2022-12-23T01:44:46.904Z,4.15
2022-12-23T01:47:20.026Z,4.50
2022-12-23T01:49:47.383Z,3.75
2022-12-23T01:52:14.599Z,3.80
2022-12-23T01:54:41.825Z,4.00
2022-12-23T01:57:12.084Z,3.97
2022-12-23T01:59:58.140Z,4.25
2022-12-23T02:02:45.075Z,3.85
2022-12-23T02:05:12.078Z,3.90
2022-12-23T02:07:57.700Z,3.90
2022-12-23T02:10:30.930Z,3.53
2022-12-23T02:13:08.847Z,3.15
2022-12-23T02:16:15.163Z,3.63
2022-12-23T02:19:01.113Z,2.93
2022-12-23T02:21:39.754Z,3.35
2022-12-23T02:24:30.291Z,4.35
2022-12-23T02:27:08.619Z,4.82
2022-12-23T02:30:02.416Z,4.93
2022-12-23T02:32:40.223Z,5.10
2022-12-23T02:35:54.359Z,4.65
2022-12-23T02:38:30.101Z,4.10
2022-12-23T02:41:34.254Z,4.28
2022-12-23T02:44:11.962Z,3.85
2022-12-23T02:46:54.516Z,3.40
2022-12-23T02:49:30.718Z,3.67
2022-12-23T02:52:01.510Z,3.80
2022-12-23T02:54:35.053Z,3.58
2022-12-23T02:57:04.830Z,4.10
2022-12-23T02:59:44.046Z,3.97
2022-12-23T03:02:10.583Z,4.00
2022-12-23T03:04:38.102Z,4.63
2022-12-23T03:07:08.036Z,4.75
2022-12-23T03:10:03.609Z,4.50
2022-12-23T03:12:56.066Z,5.17
2022-12-23T03:15:41.225Z,4.53
2022-12-23T03:18:41.036Z,4.80
2022-12-23T03:21:14.668Z,5.00
2022-12-23T03:23:55.253Z,4.45
2022-12-23T03:26:30.390Z,4.50
2022-12-23T03:29:02.753Z,4.57
2022-12-23T03:31:31.485Z,5.20
2022-12-23T03:34:08.341Z,4.13
2022-12-23T03:36:40.287Z,4.60
2022-12-23T03:39:12.949Z,4.70
2022-12-23T03:41:47.118Z,4.30
2022-12-23T03:44:22.368Z,4.15
2022-12-23T03:46:54.797Z,4.70
2022-12-23T03:49:30.093Z,4.72
2022-12-23T03:52:02.779Z,4.27
2022-12-23T03:54:40.357Z,4.82
2022-12-23T03:57:08.680Z,4.43
2022-12-23T03:59:39.014Z,4.82
2022-12-23T04:02:23.481Z,4.13
2022-12-23T04:05:06.118Z,5.20
2022-12-23T04:07:41.669Z,4.57
2022-12-23T04:10:09.546Z,4.63
2022-12-23T04:12:36.741Z,4.65
2022-12-23T04:15:09.015Z,4.60
2022-12-23T04:17:38.826Z,4.27
2022-12-23T04:20:06.929Z,4.53
2022-12-23T04:22:33.402Z,4.32
2022-12-23T04:24:59.867Z,4.05
2022-12-23T04:27:26.292Z,4.15
2022-12-23T04:29:52.883Z,3.73
2022-12-23T04:32:19.244Z,3.40
2022-12-23T04:34:45.646Z,4.35
2022-12-23T04:37:12.130Z,3.97
2022-12-23T04:39:38.555Z,3.78
2022-12-23T04:42:04.998Z,4.40
2022-12-23T04:44:31.403Z,4.43
2022-12-23T04:46:58.017Z,3.97
2022-12-23T04:49:24.416Z,4.13
2022-12-23T04:51:50.962Z,4.40
2022-12-23T04:54:17.330Z,4.53
2022-12-23T04:56:43.747Z,3.97
2022-12-23T04:59:10.804Z,4.07
2022-12-23T05:01:37.389Z,4.30
2022-12-23T05:04:03.999Z,4.03
2022-12-23T05:06:30.477Z,4.20
2022-12-23T05:08:56.828Z,4.00
2022-12-23T05:11:23.325Z,4.55
2022-12-23T05:13:49.707Z,3.78
2022-12-23T05:16:16.146Z,4.10
2022-12-23T05:18:42.724Z,3.90
2022-12-23T05:21:09.163Z,3.97
2022-12-23T05:23:35.720Z,4.68
2022-12-23T05:26:02.156Z,4.70
2022-12-23T05:28:29.083Z,4.38
2022-12-23T05:31:03.972Z,4.47
2022-12-23T05:33:30.609Z,4.35
2022-12-23T05:35:58.033Z,4.53
2022-12-23T05:38:25.213Z,4.78
2022-12-23T05:40:51.751Z,5.05
2022-12-23T05:43:18.530Z,4.37
2022-12-23T05:45:45.194Z,4.70
2022-12-23T05:48:11.635Z,4.38
2022-12-23T05:50:39.100Z,4.78
2022-12-23T05:53:06.914Z,4.20
2022-12-23T05:55:33.446Z,4.83
2022-12-23T05:57:59.964Z,3.95
2022-12-23T06:00:26.629Z,3.63
2022-12-23T06:02:54.138Z,4.15
2022-12-23T06:05:21.215Z,3.55
2022-12-23T06:07:47.660Z,3.37
2022-12-23T06:10:13.999Z,3.78
2022-12-23T06:12:40.432Z,3.70
2022-12-23T06:15:07.265Z,3.97
2022-12-23T06:17:33.658Z,3.38
2022-12-23T06:20:00.126Z,3.73
2022-12-23T06:22:26.592Z,3.80
2022-12-23T06:24:53.101Z,3.58
2022-12-23T06:27:19.524Z,3.50
2022-12-23T06:29:46.063Z,3.40
2022-12-23T06:32:12.482Z,3.90
2022-12-23T06:34:38.980Z,3.42
2022-12-23T06:37:05.446Z,3.80
2022-12-23T06:39:31.909Z,3.85
2022-12-23T06:41:58.498Z,3.45
2022-12-23T06:44:24.887Z,3.40
2022-12-23T06:46:51.307Z,3.55
2022-12-23T06:49:17.696Z,4.00
2022-12-23T06:51:44.125Z,3.67
2022-12-23T06:54:11.948Z,3.55
2022-12-23T06:56:39.056Z,3.47
2022-12-23T06:59:05.717Z,3.53
2022-12-23T07:01:32.220Z,3.15
2022-12-23T07:03:58.686Z,3.58
2022-12-23T07:06:25.025Z,3.50
2022-12-23T07:08:51.437Z,4.03
2022-12-23T07:11:18.521Z,3.95
2022-12-23T07:13:46.447Z,4.30
2022-12-23T07:16:13.456Z,4.18
2022-12-23T07:18:40.265Z,3.72
2022-12-23T07:21:13.356Z,3.73
2022-12-23T07:23:44.436Z,4.28
2022-12-23T07:26:10.757Z,4.63
2022-12-23T07:28:37.211Z,4.63
2022-12-23T07:31:06.338Z,4.63
2022-12-23T07:33:32.840Z,4.80
2022-12-23T07:35:59.684Z,5.00
2022-12-23T07:38:26.251Z,4.70
2022-12-23T07:40:52.683Z,4.85
2022-12-23T07:43:19.053Z,4.90
2022-12-23T07:45:45.437Z,4.60
2022-12-23T07:48:11.888Z,5.50
2022-12-23T07:50:38.229Z,5.10
2022-12-23T07:53:04.676Z,4.38
2022-12-23T07:55:31.171Z,4.72
2022-12-23T07:57:57.691Z,4.40
2022-12-23T08:00:24.080Z,4.65
2022-12-23T08:02:50.661Z,5.05
2022-12-23T08:05:17.319Z,5.15
2022-12-23T08:07:45.205Z,5.07
2022-12-23T08:10:12.035Z,4.70
2022-12-23T08:12:38.506Z,4.82
2022-12-23T08:15:05.535Z,5.35
2022-12-23T08:17:31.945Z,4.45
2022-12-23T08:19:58.406Z,6.25
2022-12-23T08:22:24.903Z,6.03
2022-12-23T08:24:52.584Z,6.53
2022-12-23T08:27:19.241Z,6.47
2022-12-23T08:29:45.690Z,7.18
2022-12-23T08:32:12.392Z,5.78
2022-12-23T08:34:38.941Z,6.77
2022-12-23T08:37:05.688Z,7.68
2022-12-23T08:39:32.258Z,8.30
2022-12-23T08:41:58.796Z,7.60
2022-12-23T08:44:27.875Z,7.15
2022-12-23T08:46:54.910Z,8.03
2022-12-23T08:49:21.370Z,7.95
2022-12-23T08:51:48.261Z,8.07
2022-12-23T08:54:15.436Z,8.30
2022-12-23T08:56:42.396Z,8.27
2022-12-23T08:59:19.584Z,8.97
2022-12-23T09:01:47.721Z,7.63
2022-12-23T09:04:14.547Z,8.20
2022-12-23T09:06:42.254Z,8.68
2022-12-23T09:09:10.543Z,7.20
2022-12-23T09:11:37.770Z,9.07
2022-12-23T09:14:05.460Z,10.50
2022-12-23T09:16:32.069Z,9.27
2022-12-23T09:18:58.677Z,8.50
2022-12-23T09:21:25.372Z,8.48
2022-12-23T09:23:52.331Z,8.80
2022-12-23T09:26:24.353Z,9.55
2022-12-23T09:28:51.005Z,9.23
2022-12-23T09:31:18.663Z,9.95
2022-12-23T09:33:50.616Z,9.00
2022-12-23T09:36:17.920Z,9.67
2022-12-23T09:38:44.744Z,10.07
2022-12-23T09:41:48.782Z,8.90
2022-12-23T09:44:33.937Z,8.52
2022-12-23T09:47:04.436Z,9.13
2022-12-23T09:49:30.951Z,9.60
2022-12-23T09:52:01.724Z,10.07
2022-12-23T09:54:32.135Z,9.10
2022-12-23T09:57:03.642Z,9.63
2022-12-23T09:59:38.908Z,10.27
2022-12-23T10:02:34.609Z,9.77
2022-12-23T10:05:16.200Z,8.70
2022-12-23T10:07:54.769Z,9.30
2022-12-23T10:10:48.163Z,8.55
2022-12-23T10:13:39.444Z,8.75
2022-12-23T10:16:20.386Z,8.67
2022-12-23T10:19:15.317Z,7.30
2022-12-23T10:21:48.185Z,7.80
2022-12-23T10:24:22.521Z,7.10
2022-12-23T10:26:54.405Z,7.45
2022-12-23T10:29:24.179Z,7.17
2022-12-23T10:32:20.904Z,6.82
2022-12-23T10:35:24.282Z,7.90
2022-12-23T10:38:23.020Z,8.27
2022-12-23T10:41:20.461Z,6.45
2022-12-23T10:43:57.864Z,7.60
2022-12-23T10:46:45.103Z,7.28
2022-12-23T10:49:37.808Z,7.15
2022-12-23T10:52:14.385Z,7.00
2022-12-23T10:54:43.996Z,7.18
2022-12-23T10:57:12.191Z,7.37
2022-12-23T10:59:38.798Z,7.40
2022-12-23T11:02:15.145Z,7.28
2022-12-23T11:04:47.295Z,7.22
2022-12-23T11:07:46.962Z,8.00
2022-12-23T11:10:19.804Z,8.13
2022-12-23T11:12:49.503Z,7.90
2022-12-23T11:15:36.984Z,9.45
2022-12-23T11:18:07.808Z,8.38
2022-12-23T11:20:35.698Z,8.32
2022-12-23T11:23:03.924Z,9.37
2022-12-23T11:25:32.184Z,9.38
2022-12-23T11:28:10.771Z,8.80
2022-12-23T11:30:59.322Z,10.68
2022-12-23T11:33:27.369Z,9.60
2022-12-23T11:36:17.345Z,9.23
2022-12-23T11:38:51.665Z,11.02
2022-12-23T11:41:25.089Z,10.07
2022-12-23T11:44:00.581Z,10.30
2022-12-23T11:46:33.745Z,12.20
2022-12-23T11:49:13.317Z,11.47
2022-12-23T11:51:39.768Z,11.77
2022-12-23T11:54:06.171Z,14.20
2022-12-23T11:56:38.383Z,14.27
2022-12-23T11:59:18.658Z,15.20
2022-12-23T12:01:48.992Z,13.90
2022-12-23T12:04:23.737Z,14.52
2022-12-23T12:06:56.371Z,14.80
2022-12-23T12:09:24.737Z,14.73
2022-12-23T12:12:17.309Z,14.27
2022-12-23T12:14:54.208Z,13.77
2022-12-23T12:17:49.300Z,14.88
2022-12-23T12:20:30.557Z,13.45
2022-12-23T12:23:06.809Z,13.00
2022-12-23T12:25:42.166Z,13.07
2022-12-23T12:28:18.074Z,12.90
2022-12-23T12:30:52.082Z,12.40
2022-12-23T12:33:25.399Z,13.68
2022-12-23T12:36:34.495Z,12.88
2022-12-23T12:39:01.034Z,12.20
2022-12-23T12:41:37.082Z,11.53
2022-12-23T12:44:15.707Z,11.77
2022-12-23T12:46:50.854Z,10.48
2022-12-23T12:49:36.188Z,12.13
2022-12-23T12:52:19.404Z,10.50
2022-12-23T12:54:52.851Z,11.93
2022-12-23T12:57:22.438Z,10.43
2022-12-23T12:59:59.945Z,10.13
2022-12-23T13:03:07.817Z,10.57
2022-12-23T13:05:56.558Z,9.88
2022-12-23T13:08:48.606Z,9.90
2022-12-23T13:11:45.196Z,10.30
2022-12-23T13:14:30.647Z,10.48
2022-12-23T13:17:12.479Z,10.68
2022-12-23T13:19:45.990Z,11.13
2022-12-23T13:22:18.120Z,10.53
2022-12-23T13:25:05.782Z,11.20
2022-12-23T13:27:44.861Z,11.00
2022-12-23T13:30:17.849Z,10.43
2022-12-23T13:33:05.139Z,10.30
2022-12-23T13:36:05.662Z,10.47
2022-12-23T13:38:44.615Z,10.63
2022-12-23T13:41:29.725Z,10.73
2022-12-23T13:44:09.534Z,10.35
2022-12-23T13:46:42.138Z,9.55
2022-12-23T13:49:42.886Z,9.70
2022-12-23T13:52:24.583Z,9.70
2022-12-23T13:55:06.086Z,9.65
2022-12-23T13:57:53.741Z,10.35
2022-12-23T14:00:20.184Z,8.75
2022-12-23T14:03:09.500Z,9.13
2022-12-23T14:05:41.150Z,9.18
2022-12-23T14:08:19.810Z,9.38
2022-12-23T14:11:00.610Z,9.25
2022-12-23T14:13:42.137Z,9.48
2022-12-23T14:16:29.508Z,9.13
2022-12-23T14:18:58.902Z,10.43
2022-12-23T14:21:43.909Z,9.60
2022-12-23T14:24:16.194Z,9.55
2022-12-23T14:26:45.627Z,9.65
2022-12-23T14:29:14.904Z,10.40
2022-12-23T14:31:45.245Z,9.40
2022-12-23T14:34:17.489Z,9.73
2022-12-23T14:37:16.590Z,9.32
2022-12-23T14:39:43.821Z,9.73
2022-12-23T14:42:15.000Z,9.60
2022-12-23T14:44:46.287Z,9.43
2022-12-23T14:47:33.824Z,9.13
2022-12-23T14:50:42.582Z,8.80
2022-12-23T14:53:26.347Z,7.85
2022-12-23T14:56:10.989Z,8.63
2022-12-23T14:58:39.418Z,8.52
2022-12-23T15:01:12.873Z,8.05
2022-12-23T15:03:46.822Z,7.90
2022-12-23T15:06:20.643Z,8.73
2022-12-23T15:08:50.762Z,7.87
2022-12-23T15:11:28.660Z,8.63
2022-12-23T15:13:57.033Z,8.70
2022-12-23T15:16:31.584Z,8.95
2022-12-23T15:19:02.214Z,8.45
2022-12-23T15:21:31.715Z,7.90
2022-12-23T15:23:58.447Z,9.50
2022-12-23T15:26:28.836Z,9.77
2022-12-23T15:28:57.356Z,8.90
2022-12-23T15:31:31.288Z,8.23
2022-12-23T15:34:03.922Z,8.07
2022-12-23T15:36:37.607Z,8.20
2022-12-23T15:39:09.879Z,7.97
2022-12-23T15:41:47.138Z,8.15
2022-12-23T15:44:20.258Z,7.88
2022-12-23T15:46:46.799Z,8.20
2022-12-23T15:49:13.478Z,7.70
2022-12-23T15:54:36.783Z,7.90
2022-12-23T15:57:04.547Z,8.40
2022-12-23T15:59:38.256Z,7.17
2022-12-23T16:02:59.214Z,8.82
2022-12-23T16:05:31.118Z,8.75
2022-12-23T16:08:16.202Z,10.70
2022-12-23T16:10:55.334Z,8.90
2022-12-23T16:13:21.818Z,7.83
2022-12-23T16:15:48.401Z,8.73
2022-12-23T16:18:31.656Z,8.43
2022-12-23T16:21:02.244Z,8.68
2022-12-23T16:23:31.105Z,8.15
2022-12-23T16:26:00.273Z,8.47
2022-12-23T16:28:29.866Z,9.10
2022-12-23T16:30:58.373Z,9.20
2022-12-23T16:33:30.619Z,9.45
2022-12-23T16:36:26.047Z,9.07
2022-12-23T16:38:56.228Z,8.80
2022-12-23T16:41:22.944Z,8.80
2022-12-23T16:43:52.459Z,7.53
2022-12-23T16:46:21.854Z,6.57
2022-12-23T16:48:55.624Z,7.22
2022-12-23T16:51:23.041Z,7.33
2022-12-23T16:53:51.183Z,7.07
2022-12-23T16:56:20.970Z,7.97
2022-12-23T16:58:47.822Z,7.32
2022-12-23T17:01:18.436Z,7.80
2022-12-23T17:03:44.844Z,8.70
2022-12-23T17:06:13.944Z,7.95
2022-12-23T17:08:40.889Z,8.85
2022-12-23T17:11:17.372Z,8.60
2022-12-23T17:13:44.610Z,9.02
2022-12-23T17:16:19.217Z,8.73
2022-12-23T17:18:49.766Z,9.90
2022-12-23T17:21:28.926Z,10.20
2022-12-23T17:24:03.411Z,9.25
2022-12-23T17:26:30.055Z,9.25
2022-12-23T17:28:56.479Z,9.80
2022-12-23T17:31:27.009Z,9.13
2022-12-23T17:33:54.246Z,10.18
2022-12-23T17:36:20.839Z,10.30
2022-12-23T17:38:47.299Z,8.93
2022-12-23T17:41:22.340Z,9.57
2022-12-23T17:43:48.863Z,9.77
2022-12-23T17:46:15.418Z,9.40
2022-12-23T17:48:42.992Z,9.52
2022-12-23T17:51:15.425Z,8.93
2022-12-23T17:53:41.829Z,8.63
2022-12-23T17:56:17.409Z,8.45
2022-12-23T17:58:45.192Z,9.50
2022-12-23T18:01:40.985Z,8.55
2022-12-23T18:04:08.043Z,7.95
2022-12-23T18:06:35.017Z,8.07
2022-12-23T18:09:01.398Z,8.43
2022-12-23T18:11:34.720Z,7.90
2022-12-23T18:14:03.107Z,6.95
2022-12-23T18:16:29.996Z,6.38
2022-12-23T18:18:57.042Z,6.57
2022-12-23T18:21:28.430Z,7.07
2022-12-23T18:23:59.597Z,5.95
2022-12-23T18:26:26.281Z,6.53
2022-12-23T18:28:54.070Z,5.53
2022-12-23T18:31:23.918Z,5.67
2022-12-23T18:33:51.183Z,5.57
2022-12-23T18:36:22.179Z,6.03
2022-12-23T18:38:48.734Z,6.20
2022-12-23T18:41:15.260Z,5.07
2022-12-23T18:43:41.694Z,5.10
2022-12-23T18:46:08.236Z,3.95
2022-12-23T18:48:34.586Z,4.25
2022-12-23T18:51:01.027Z,3.75
2022-12-23T18:53:27.657Z,4.30
2022-12-23T18:55:54.800Z,3.73
2022-12-23T18:58:21.925Z,4.22
2022-12-23T19:00:50.313Z,3.05
2022-12-23T19:03:26.377Z,3.92
2022-12-23T19:05:54.585Z,3.47
2022-12-23T19:08:26.667Z,3.50
2022-12-23T19:10:54.776Z,3.72
2022-12-23T19:13:21.257Z,4.95
2022-12-23T19:15:47.739Z,3.35
2022-12-23T19:18:16.252Z,4.05
2022-12-23T19:20:43.963Z,4.80
2022-12-23T19:23:11.381Z,3.47
2022-12-23T19:25:41.797Z,4.07
2022-12-23T19:28:08.506Z,4.60
2022-12-23T19:30:35.239Z,3.95
2022-12-23T19:33:01.683Z,4.00
2022-12-23T19:35:28.270Z,3.20
2022-12-23T19:37:54.740Z,3.92
2022-12-23T19:40:21.567Z,3.72
2022-12-23T19:42:48.037Z,3.95
2022-12-23T19:45:14.433Z,3.17
2022-12-23T19:47:40.915Z,4.18
2022-12-23T19:50:08.218Z,3.85
2022-12-23T19:52:34.875Z,3.75
2022-12-23T19:55:01.394Z,3.25
2022-12-23T19:57:27.878Z,3.10
2022-12-23T19:59:54.240Z,4.18
2022-12-23T20:02:20.782Z,4.10
2022-12-23T20:04:47.412Z,2.90
2022-12-23T20:07:13.850Z,3.97
2022-12-23T20:09:40.745Z,3.40
2022-12-23T20:12:07.270Z,3.28
2022-12-23T20:14:34.604Z,3.83
2022-12-23T20:17:01.349Z,3.80
2022-12-23T20:19:28.108Z,3.80
2022-12-23T20:21:54.770Z,4.03
2022-12-23T20:24:21.157Z,3.95
2022-12-23T20:26:47.898Z,3.97
2022-12-23T20:29:14.446Z,3.67
2022-12-23T20:31:41.356Z,4.25
2022-12-23T20:34:09.061Z,3.37
2022-12-23T20:36:36.443Z,3.20
2022-12-23T20:39:04.223Z,3.63
2022-12-23T20:41:31.837Z,3.25
2022-12-23T20:46:45.213Z,3.13
2022-12-23T20:49:11.974Z,3.13
2022-12-23T20:51:38.354Z,2.90
2022-12-23T20:54:04.802Z,2.70
2022-12-23T20:56:31.814Z,2.45
2022-12-23T20:58:59.455Z,2.97
2022-12-23T21:01:38.378Z,2.97
2022-12-23T21:04:07.595Z,3.05
2022-12-23T21:06:34.789Z,2.03
2022-12-23T21:09:02.476Z,2.20
2022-12-23T21:11:30.446Z,2.67
2022-12-23T21:14:02.628Z,1.65
2022-12-23T21:16:32.501Z,1.52
2022-12-23T21:18:59.984Z,1.45
2022-12-23T21:21:27.942Z,2.10
2022-12-23T21:23:56.209Z,2.00
2022-12-23T21:26:24.892Z,2.17
2022-12-23T21:28:53.461Z,2.00
2022-12-23T21:31:22.285Z,1.60
2022-12-23T21:33:49.813Z,1.98
2022-12-23T21:36:20.392Z,1.53
2022-12-23T21:38:48.145Z,2.53
2022-12-23T21:41:18.056Z,1.65
2022-12-23T21:43:44.516Z,1.70
2022-12-23T21:46:17.708Z,2.03
2022-12-23T21:48:44.994Z,1.30
2022-12-23T21:51:26.028Z,1.77
2022-12-23T21:53:54.935Z,1.60
2022-12-23T21:56:28.203Z,1.38
2022-12-23T21:58:59.195Z,1.80
2022-12-23T22:01:26.917Z,1.50
2022-12-23T22:03:54.213Z,1.63
2022-12-23T22:06:32.469Z,2.05
2022-12-23T22:08:59.772Z,1.20
2022-12-23T22:11:29.431Z,1.17
2022-12-23T22:13:57.778Z,1.67
2022-12-23T22:16:26.035Z,1.00
2022-12-23T22:18:53.128Z,1.67
2022-12-23T22:21:21.981Z,1.65
2022-12-23T22:23:49.477Z,1.35
2022-12-23T22:26:25.244Z,1.83
2022-12-23T22:28:56.206Z,2.33
2022-12-23T22:31:31.081Z,1.77
2022-12-23T22:33:57.669Z,1.40
2022-12-23T22:36:24.233Z,1.55
2022-12-23T22:38:53.295Z,1.87
2022-12-23T22:41:20.167Z,1.83
2022-12-23T22:43:46.781Z,2.17
2022-12-23T22:46:13.599Z,1.80
2022-12-23T22:48:40.233Z,1.42
2022-12-23T22:51:17.508Z,1.90
2022-12-23T22:53:44.585Z,1.55
2022-12-23T22:56:13.169Z,1.80
2022-12-23T22:58:39.851Z,1.52
2022-12-23T23:01:07.488Z,1.58
2022-12-23T23:03:33.997Z,1.80
2022-12-23T23:06:07.027Z,2.20
2022-12-23T23:08:34.862Z,1.67
2022-12-23T23:11:05.091Z,1.67
2022-12-23T23:13:34.345Z,2.38
2022-12-23T23:16:02.513Z,2.10
2022-12-23T23:18:29.982Z,1.70
2022-12-23T23:20:56.830Z,1.63
2022-12-23T23:23:23.596Z,1.95
2022-12-23T23:25:50.209Z,1.77
2022-12-23T23:28:16.674Z,1.90
2022-12-23T23:30:43.195Z,2.38
2022-12-23T23:33:10.564Z,2.20
2022-12-23T23:35:37.400Z,2.08
2022-12-23T23:38:04.119Z,2.30
2022-12-23T23:40:30.573Z,2.03
2022-12-23T23:42:57.102Z,2.22
2022-12-23T23:45:23.837Z,1.48
2022-12-23T23:47:50.429Z,1.33
2022-12-23T23:50:16.799Z,2.30
2022-12-23T23:52:43.210Z,1.53
2022-12-23T23:55:10.177Z,1.63
2022-12-23T23:57:36.668Z,1.83
